sensor_id;sensor_type;location;lat;lon;timestamp;P1;durP1;ratioP1;P2;durP2;ratioP2
14907;SDS011;7545;52.092;7.006;2023-07-28T00:01:34;5.30;;;4.28;;
14907;SDS011;7545;52.092;7.006;2023-07-28T00:03:59;5.82;;;4.22;;
14907;SDS011;7545;52.092;7.006;2023-07-28T00:06:25;4.88;;;4.35;;
14907;SDS011;7545;52.092;7.006;2023-07-28T00:08:51;6.75;;;4.25;;
14907;SDS011;7545;52.092;7.006;2023-07-28T00:11:16;7.13;;;4.78;;
14907;SDS011;7545;52.092;7.006;2023-07-28T00:13:42;5.85;;;4.45;;
14907;SDS011;7545;52.092;7.006;2023-07-28T00:16:08;5.70;;;4.15;;
14907;SDS011;7545;52.092;7.006;2023-07-28T00:18:34;5.85;;;4.30;;
14907;SDS011;7545;52.092;7.006;2023-07-28T00:21:00;5.88;;;4.43;;
14907;SDS011;7545;52.092;7.006;2023-07-28T00:23:27;6.03;;;4.85;;
14907;SDS011;7545;52.092;7.006;2023-07-28T00:25:53;5.53;;;4.55;;
14907;SDS011;7545;52.092;7.006;2023-07-28T00:28:19;6.28;;;5.10;;
14907;SDS011;7545;52.092;7.006;2023-07-28T00:30:44;4.80;;;4.30;;
14907;SDS011;7545;52.092;7.006;2023-07-28T00:33:14;5.88;;;4.88;;
14907;SDS011;7545;52.092;7.006;2023-07-28T00:35:40;6.53;;;4.70;;
14907;SDS011;7545;52.092;7.006;2023-07-28T00:38:06;5.95;;;5.03;;
14907;SDS011;7545;52.092;7.006;2023-07-28T00:40:31;4.93;;;4.43;;
14907;SDS011;7545;52.092;7.006;2023-07-28T00:42:57;5.57;;;4.85;;
14907;SDS011;7545;52.092;7.006;2023-07-28T00:45:22;5.78;;;4.93;;
14907;SDS011;7545;52.092;7.006;2023-07-28T00:47:48;7.13;;;5.03;;
14907;SDS011;7545;52.092;7.006;2023-07-28T00:50:14;6.00;;;4.68;;
14907;SDS011;7545;52.092;7.006;2023-07-28T00:52:39;6.30;;;5.65;;
14907;SDS011;7545;52.092;7.006;2023-07-28T00:55:06;7.00;;;5.22;;
14907;SDS011;7545;52.092;7.006;2023-07-28T00:57:31;6.07;;;4.97;;
14907;SDS011;7545;52.092;7.006;2023-07-28T00:59:58;7.25;;;5.07;;
14907;SDS011;7545;52.092;7.006;2023-07-28T01:02:24;6.10;;;4.68;;
14907;SDS011;7545;52.092;7.006;2023-07-28T01:04:50;5.72;;;4.60;;
14907;SDS011;7545;52.092;7.006;2023-07-28T01:07:17;8.15;;;4.50;;
14907;SDS011;7545;52.092;7.006;2023-07-28T01:10:01;5.97;;;5.25;;
14907;SDS011;7545;52.092;7.006;2023-07-28T01:12:27;5.45;;;4.70;;
14907;SDS011;7545;52.092;7.006;2023-07-28T01:14:53;6.57;;;5.53;;
14907;SDS011;7545;52.092;7.006;2023-07-28T01:17:19;5.20;;;4.30;;
14907;SDS011;7545;52.092;7.006;2023-07-28T01:19:45;6.82;;;5.07;;
14907;SDS011;7545;52.092;7.006;2023-07-28T01:24:55;6.80;;;5.55;;
14907;SDS011;7545;52.092;7.006;2023-07-28T01:27:38;6.15;;;4.68;;
14907;SDS011;7545;52.092;7.006;2023-07-28T01:30:07;5.70;;;5.10;;
14907;SDS011;7545;52.092;7.006;2023-07-28T01:32:34;6.00;;;5.38;;
14907;SDS011;7545;52.092;7.006;2023-07-28T01:35:01;6.22;;;5.18;;
14907;SDS011;7545;52.092;7.006;2023-07-28T01:37:29;7.30;;;5.50;;
14907;SDS011;7545;52.092;7.006;2023-07-28T01:39:55;6.35;;;5.10;;
14907;SDS011;7545;52.092;7.006;2023-07-28T01:42:22;6.68;;;5.22;;
14907;SDS011;7545;52.092;7.006;2023-07-28T01:44:48;7.30;;;6.07;;
14907;SDS011;7545;52.092;7.006;2023-07-28T01:47:14;7.82;;;5.45;;
14907;SDS011;7545;52.092;7.006;2023-07-28T01:49:39;6.28;;;5.20;;
14907;SDS011;7545;52.092;7.006;2023-07-28T01:52:05;7.45;;;6.10;;
14907;SDS011;7545;52.092;7.006;2023-07-28T01:54:30;6.65;;;5.15;;
14907;SDS011;7545;52.092;7.006;2023-07-28T01:56:56;6.65;;;5.28;;
14907;SDS011;7545;52.092;7.006;2023-07-28T01:59:21;7.50;;;5.65;;
14907;SDS011;7545;52.092;7.006;2023-07-28T02:01:47;7.35;;;5.60;;
14907;SDS011;7545;52.092;7.006;2023-07-28T02:04:13;9.18;;;5.68;;
14907;SDS011;7545;52.092;7.006;2023-07-28T02:06:39;6.85;;;5.72;;
14907;SDS011;7545;52.092;7.006;2023-07-28T02:09:04;6.72;;;5.10;;
14907;SDS011;7545;52.092;7.006;2023-07-28T02:11:30;5.03;;;4.38;;
14907;SDS011;7545;52.092;7.006;2023-07-28T02:13:55;5.82;;;5.03;;
14907;SDS011;7545;52.092;7.006;2023-07-28T02:16:21;6.50;;;5.43;;
14907;SDS011;7545;52.092;7.006;2023-07-28T02:18:46;6.90;;;5.82;;
14907;SDS011;7545;52.092;7.006;2023-07-28T02:21:12;7.45;;;6.00;;
14907;SDS011;7545;52.092;7.006;2023-07-28T02:23:38;6.05;;;5.13;;
14907;SDS011;7545;52.092;7.006;2023-07-28T02:26:03;8.32;;;6.13;;
14907;SDS011;7545;52.092;7.006;2023-07-28T02:28:29;6.18;;;5.38;;
14907;SDS011;7545;52.092;7.006;2023-07-28T02:30:54;6.35;;;4.88;;
14907;SDS011;7545;52.092;7.006;2023-07-28T02:33:20;6.07;;;4.95;;
14907;SDS011;7545;52.092;7.006;2023-07-28T02:35:45;6.13;;;5.00;;
14907;SDS011;7545;52.092;7.006;2023-07-28T02:38:11;6.07;;;5.43;;
14907;SDS011;7545;52.092;7.006;2023-07-28T02:40:36;6.45;;;5.38;;
14907;SDS011;7545;52.092;7.006;2023-07-28T02:43:02;5.35;;;4.68;;
14907;SDS011;7545;52.092;7.006;2023-07-28T02:45:27;6.47;;;5.55;;
14907;SDS011;7545;52.092;7.006;2023-07-28T02:47:53;8.50;;;5.55;;
14907;SDS011;7545;52.092;7.006;2023-07-28T02:50:18;6.60;;;5.40;;
14907;SDS011;7545;52.092;7.006;2023-07-28T02:52:44;6.38;;;4.93;;
14907;SDS011;7545;52.092;7.006;2023-07-28T02:55:09;7.50;;;5.45;;
14907;SDS011;7545;52.092;7.006;2023-07-28T02:57:35;7.75;;;6.07;;
14907;SDS011;7545;52.092;7.006;2023-07-28T03:00:01;6.38;;;5.07;;
14907;SDS011;7545;52.092;7.006;2023-07-28T03:02:26;8.20;;;5.40;;
14907;SDS011;7545;52.092;7.006;2023-07-28T03:04:52;7.80;;;5.65;;
14907;SDS011;7545;52.092;7.006;2023-07-28T03:07:17;7.40;;;5.50;;
14907;SDS011;7545;52.092;7.006;2023-07-28T03:09:43;8.23;;;6.05;;
14907;SDS011;7545;52.092;7.006;2023-07-28T03:12:08;8.20;;;6.60;;
14907;SDS011;7545;52.092;7.006;2023-07-28T03:14:35;9.95;;;6.32;;
14907;SDS011;7545;52.092;7.006;2023-07-28T03:17:02;8.05;;;6.25;;
14907;SDS011;7545;52.092;7.006;2023-07-28T03:19:27;8.50;;;6.82;;
14907;SDS011;7545;52.092;7.006;2023-07-28T03:21:53;10.00;;;7.70;;
14907;SDS011;7545;52.092;7.006;2023-07-28T03:24:18;7.97;;;6.43;;
14907;SDS011;7545;52.092;7.006;2023-07-28T03:26:44;8.25;;;6.28;;
14907;SDS011;7545;52.092;7.006;2023-07-28T03:29:10;8.57;;;6.10;;
14907;SDS011;7545;52.092;7.006;2023-07-28T03:31:35;8.93;;;6.65;;
14907;SDS011;7545;52.092;7.006;2023-07-28T03:34:01;10.00;;;6.95;;
14907;SDS011;7545;52.092;7.006;2023-07-28T03:36:27;13.52;;;6.53;;
14907;SDS011;7545;52.092;7.006;2023-07-28T03:38:53;8.10;;;5.78;;
14907;SDS011;7545;52.092;7.006;2023-07-28T03:41:19;7.43;;;5.70;;
14907;SDS011;7545;52.092;7.006;2023-07-28T03:43:45;7.43;;;6.10;;
14907;SDS011;7545;52.092;7.006;2023-07-28T03:46:10;9.02;;;6.68;;
14907;SDS011;7545;52.092;7.006;2023-07-28T03:48:36;8.52;;;6.55;;
14907;SDS011;7545;52.092;7.006;2023-07-28T03:51:02;9.18;;;6.80;;
14907;SDS011;7545;52.092;7.006;2023-07-28T03:53:27;8.80;;;6.65;;
14907;SDS011;7545;52.092;7.006;2023-07-28T03:55:53;8.68;;;6.47;;
14907;SDS011;7545;52.092;7.006;2023-07-28T03:58:22;7.43;;;6.15;;
14907;SDS011;7545;52.092;7.006;2023-07-28T04:00:54;9.52;;;6.10;;
14907;SDS011;7545;52.092;7.006;2023-07-28T04:03:19;8.57;;;6.35;;
14907;SDS011;7545;52.092;7.006;2023-07-28T04:05:45;8.15;;;5.82;;
14907;SDS011;7545;52.092;7.006;2023-07-28T04:08:11;8.73;;;6.85;;
14907;SDS011;7545;52.092;7.006;2023-07-28T04:10:36;7.97;;;6.28;;
14907;SDS011;7545;52.092;7.006;2023-07-28T04:13:02;7.75;;;5.57;;
14907;SDS011;7545;52.092;7.006;2023-07-28T04:15:27;8.18;;;6.68;;
14907;SDS011;7545;52.092;7.006;2023-07-28T04:17:53;8.88;;;6.72;;
14907;SDS011;7545;52.092;7.006;2023-07-28T04:20:18;10.15;;;6.20;;
14907;SDS011;7545;52.092;7.006;2023-07-28T04:22:44;7.75;;;5.65;;
14907;SDS011;7545;52.092;7.006;2023-07-28T04:25:09;7.85;;;6.07;;
14907;SDS011;7545;52.092;7.006;2023-07-28T04:27:35;8.95;;;6.72;;
14907;SDS011;7545;52.092;7.006;2023-07-28T04:30:01;9.57;;;5.88;;
14907;SDS011;7545;52.092;7.006;2023-07-28T04:32:26;7.90;;;5.55;;
14907;SDS011;7545;52.092;7.006;2023-07-28T04:34:52;7.38;;;6.18;;
14907;SDS011;7545;52.092;7.006;2023-07-28T04:37:18;6.68;;;5.70;;
14907;SDS011;7545;52.092;7.006;2023-07-28T04:39:44;8.50;;;6.05;;
14907;SDS011;7545;52.092;7.006;2023-07-28T04:42:09;7.30;;;5.93;;
14907;SDS011;7545;52.092;7.006;2023-07-28T04:44:36;7.53;;;5.88;;
14907;SDS011;7545;52.092;7.006;2023-07-28T04:47:04;10.55;;;6.10;;
14907;SDS011;7545;52.092;7.006;2023-07-28T04:49:30;7.43;;;5.13;;
14907;SDS011;7545;52.092;7.006;2023-07-28T04:51:56;6.75;;;5.40;;
14907;SDS011;7545;52.092;7.006;2023-07-28T04:54:21;5.93;;;4.85;;
14907;SDS011;7545;52.092;7.006;2023-07-28T04:56:47;5.95;;;5.35;;
14907;SDS011;7545;52.092;7.006;2023-07-28T04:59:14;8.18;;;5.10;;
14907;SDS011;7545;52.092;7.006;2023-07-28T05:01:40;6.35;;;5.30;;
14907;SDS011;7545;52.092;7.006;2023-07-28T05:04:06;6.70;;;5.18;;
14907;SDS011;7545;52.092;7.006;2023-07-28T05:06:31;7.82;;;6.53;;
14907;SDS011;7545;52.092;7.006;2023-07-28T05:08:57;7.35;;;5.55;;
14907;SDS011;7545;52.092;7.006;2023-07-28T05:11:22;6.63;;;4.82;;
14907;SDS011;7545;52.092;7.006;2023-07-28T05:13:48;7.25;;;5.32;;
14907;SDS011;7545;52.092;7.006;2023-07-28T05:16:13;7.68;;;4.50;;
14907;SDS011;7545;52.092;7.006;2023-07-28T05:18:39;6.40;;;5.07;;
14907;SDS011;7545;52.092;7.006;2023-07-28T05:21:07;8.90;;;4.75;;
14907;SDS011;7545;52.092;7.006;2023-07-28T05:23:33;6.75;;;5.30;;
14907;SDS011;7545;52.092;7.006;2023-07-28T05:25:59;7.80;;;5.15;;
14907;SDS011;7545;52.092;7.006;2023-07-28T05:28:24;6.95;;;5.30;;
14907;SDS011;7545;52.092;7.006;2023-07-28T05:30:50;6.70;;;5.65;;
14907;SDS011;7545;52.092;7.006;2023-07-28T05:33:15;7.15;;;5.47;;
14907;SDS011;7545;52.092;7.006;2023-07-28T05:35:41;10.27;;;6.18;;
14907;SDS011;7545;52.092;7.006;2023-07-28T05:38:07;9.90;;;6.07;;
14907;SDS011;7545;52.092;7.006;2023-07-28T05:40:32;8.68;;;5.38;;
14907;SDS011;7545;52.092;7.006;2023-07-28T05:42:58;9.27;;;6.53;;
14907;SDS011;7545;52.092;7.006;2023-07-28T05:45:23;9.20;;;6.28;;
14907;SDS011;7545;52.092;7.006;2023-07-28T05:47:49;8.55;;;5.90;;
14907;SDS011;7545;52.092;7.006;2023-07-28T05:50:14;10.50;;;6.88;;
14907;SDS011;7545;52.092;7.006;2023-07-28T05:52:40;10.27;;;6.88;;
14907;SDS011;7545;52.092;7.006;2023-07-28T05:55:06;11.20;;;6.75;;
14907;SDS011;7545;52.092;7.006;2023-07-28T05:57:32;9.05;;;6.90;;
14907;SDS011;7545;52.092;7.006;2023-07-28T05:59:57;10.13;;;6.55;;
14907;SDS011;7545;52.092;7.006;2023-07-28T06:02:23;10.20;;;6.82;;
14907;SDS011;7545;52.092;7.006;2023-07-28T06:04:48;10.35;;;7.55;;
14907;SDS011;7545;52.092;7.006;2023-07-28T06:07:14;11.57;;;6.75;;
14907;SDS011;7545;52.092;7.006;2023-07-28T06:09:39;10.50;;;7.35;;
14907;SDS011;7545;52.092;7.006;2023-07-28T06:12:05;8.32;;;6.57;;
14907;SDS011;7545;52.092;7.006;2023-07-28T06:14:31;9.00;;;6.32;;
14907;SDS011;7545;52.092;7.006;2023-07-28T06:16:56;10.43;;;6.53;;
14907;SDS011;7545;52.092;7.006;2023-07-28T06:19:22;9.90;;;6.60;;
14907;SDS011;7545;52.092;7.006;2023-07-28T06:21:49;11.50;;;7.10;;
14907;SDS011;7545;52.092;7.006;2023-07-28T06:24:16;9.77;;;6.90;;
14907;SDS011;7545;52.092;7.006;2023-07-28T06:26:41;10.40;;;7.43;;
14907;SDS011;7545;52.092;7.006;2023-07-28T06:29:07;10.50;;;6.68;;
14907;SDS011;7545;52.092;7.006;2023-07-28T06:31:32;9.23;;;7.32;;
14907;SDS011;7545;52.092;7.006;2023-07-28T06:33:58;10.05;;;7.15;;
14907;SDS011;7545;52.092;7.006;2023-07-28T06:36:24;11.48;;;7.18;;
14907;SDS011;7545;52.092;7.006;2023-07-28T06:38:49;12.90;;;8.32;;
14907;SDS011;7545;52.092;7.006;2023-07-28T06:41:17;12.90;;;7.47;;
14907;SDS011;7545;52.092;7.006;2023-07-28T06:43:42;11.73;;;8.60;;
14907;SDS011;7545;52.092;7.006;2023-07-28T06:46:08;12.43;;;7.47;;
14907;SDS011;7545;52.092;7.006;2023-07-28T06:48:34;11.98;;;7.20;;
14907;SDS011;7545;52.092;7.006;2023-07-28T06:50:59;10.50;;;7.45;;
14907;SDS011;7545;52.092;7.006;2023-07-28T06:53:25;10.82;;;7.95;;
14907;SDS011;7545;52.092;7.006;2023-07-28T06:55:50;12.63;;;7.20;;
14907;SDS011;7545;52.092;7.006;2023-07-28T06:58:16;10.68;;;7.78;;
14907;SDS011;7545;52.092;7.006;2023-07-28T07:00:41;11.38;;;7.25;;
14907;SDS011;7545;52.092;7.006;2023-07-28T07:03:08;12.95;;;7.65;;
14907;SDS011;7545;52.092;7.006;2023-07-28T07:05:35;12.95;;;7.22;;
14907;SDS011;7545;52.092;7.006;2023-07-28T07:08:00;10.40;;;6.75;;
14907;SDS011;7545;52.092;7.006;2023-07-28T07:10:26;13.43;;;7.28;;
14907;SDS011;7545;52.092;7.006;2023-07-28T07:12:52;11.20;;;7.88;;
14907;SDS011;7545;52.092;7.006;2023-07-28T07:15:17;13.23;;;7.25;;
14907;SDS011;7545;52.092;7.006;2023-07-28T07:17:43;13.38;;;7.57;;
14907;SDS011;7545;52.092;7.006;2023-07-28T07:20:09;12.57;;;7.45;;
14907;SDS011;7545;52.092;7.006;2023-07-28T07:22:35;17.40;;;7.57;;
14907;SDS011;7545;52.092;7.006;2023-07-28T07:25:02;12.40;;;7.22;;
14907;SDS011;7545;52.092;7.006;2023-07-28T07:27:29;11.80;;;7.63;;
14907;SDS011;7545;52.092;7.006;2023-07-28T07:29:54;11.82;;;7.13;;
14907;SDS011;7545;52.092;7.006;2023-07-28T07:32:20;13.13;;;8.00;;
14907;SDS011;7545;52.092;7.006;2023-07-28T07:34:46;14.20;;;8.10;;
14907;SDS011;7545;52.092;7.006;2023-07-28T07:37:12;15.70;;;8.88;;
14907;SDS011;7545;52.092;7.006;2023-07-28T07:39:37;14.15;;;8.02;;
14907;SDS011;7545;52.092;7.006;2023-07-28T07:42:03;14.70;;;8.23;;
14907;SDS011;7545;52.092;7.006;2023-07-28T07:44:30;15.95;;;8.38;;
14907;SDS011;7545;52.092;7.006;2023-07-28T07:46:55;14.73;;;9.13;;
14907;SDS011;7545;52.092;7.006;2023-07-28T07:49:21;16.08;;;8.50;;
14907;SDS011;7545;52.092;7.006;2023-07-28T07:51:47;14.60;;;8.25;;
14907;SDS011;7545;52.092;7.006;2023-07-28T07:54:13;15.70;;;9.30;;
14907;SDS011;7545;52.092;7.006;2023-07-28T07:56:41;16.48;;;10.63;;
14907;SDS011;7545;52.092;7.006;2023-07-28T07:59:07;17.80;;;9.25;;
14907;SDS011;7545;52.092;7.006;2023-07-28T08:01:33;17.77;;;9.60;;
14907;SDS011;7545;52.092;7.006;2023-07-28T08:03:58;18.55;;;9.95;;
14907;SDS011;7545;52.092;7.006;2023-07-28T08:06:24;15.82;;;9.55;;
14907;SDS011;7545;52.092;7.006;2023-07-28T08:08:49;20.60;;;9.82;;
14907;SDS011;7545;52.092;7.006;2023-07-28T08:11:17;15.82;;;9.77;;
14907;SDS011;7545;52.092;7.006;2023-07-28T08:13:43;14.25;;;9.57;;
14907;SDS011;7545;52.092;7.006;2023-07-28T08:16:10;17.30;;;9.98;;
14907;SDS011;7545;52.092;7.006;2023-07-28T08:18:35;16.63;;;9.40;;
14907;SDS011;7545;52.092;7.006;2023-07-28T08:21:01;15.07;;;9.68;;
14907;SDS011;7545;52.092;7.006;2023-07-28T08:23:26;13.10;;;8.50;;
14907;SDS011;7545;52.092;7.006;2023-07-28T08:25:52;15.30;;;9.45;;
14907;SDS011;7545;52.092;7.006;2023-07-28T08:28:18;18.65;;;9.77;;
14907;SDS011;7545;52.092;7.006;2023-07-28T08:30:44;15.15;;;9.70;;
14907;SDS011;7545;52.092;7.006;2023-07-28T08:33:09;17.00;;;9.70;;
14907;SDS011;7545;52.092;7.006;2023-07-28T08:35:35;16.90;;;9.43;;
14907;SDS011;7545;52.092;7.006;2023-07-28T08:38:00;19.67;;;10.20;;
14907;SDS011;7545;52.092;7.006;2023-07-28T08:40:26;15.15;;;10.13;;
14907;SDS011;7545;52.092;7.006;2023-07-28T08:42:53;16.63;;;9.27;;
14907;SDS011;7545;52.092;7.006;2023-07-28T08:45:19;15.65;;;9.70;;
14907;SDS011;7545;52.092;7.006;2023-07-28T08:47:44;15.57;;;9.13;;
14907;SDS011;7545;52.092;7.006;2023-07-28T08:50:10;13.38;;;8.10;;
14907;SDS011;7545;52.092;7.006;2023-07-28T08:52:36;14.40;;;8.70;;
14907;SDS011;7545;52.092;7.006;2023-07-28T08:55:01;14.38;;;8.57;;
14907;SDS011;7545;52.092;7.006;2023-07-28T08:57:28;14.77;;;9.55;;
14907;SDS011;7545;52.092;7.006;2023-07-28T08:59:53;17.08;;;9.70;;
14907;SDS011;7545;52.092;7.006;2023-07-28T09:02:19;14.57;;;9.50;;
14907;SDS011;7545;52.092;7.006;2023-07-28T09:04:46;12.90;;;9.35;;
14907;SDS011;7545;52.092;7.006;2023-07-28T09:07:12;16.02;;;9.80;;
14907;SDS011;7545;52.092;7.006;2023-07-28T09:09:40;13.68;;;9.55;;
14907;SDS011;7545;52.092;7.006;2023-07-28T09:12:06;15.00;;;9.07;;
14907;SDS011;7545;52.092;7.006;2023-07-28T09:14:34;15.43;;;9.65;;
14907;SDS011;7545;52.092;7.006;2023-07-28T09:17:11;14.23;;;9.45;;
14907;SDS011;7545;52.092;7.006;2023-07-28T09:22:20;11.43;;;8.48;;
14907;SDS011;7545;52.092;7.006;2023-07-28T09:24:47;13.90;;;8.93;;
14907;SDS011;7545;52.092;7.006;2023-07-28T09:27:23;13.63;;;9.13;;
14907;SDS011;7545;52.092;7.006;2023-07-28T09:29:50;15.82;;;9.75;;
14907;SDS011;7545;52.092;7.006;2023-07-28T09:32:17;15.43;;;9.70;;
14907;SDS011;7545;52.092;7.006;2023-07-28T09:35:06;13.27;;;8.48;;
14907;SDS011;7545;52.092;7.006;2023-07-28T09:37:37;12.90;;;9.38;;
14907;SDS011;7545;52.092;7.006;2023-07-28T09:40:05;11.82;;;8.90;;
14907;SDS011;7545;52.092;7.006;2023-07-28T09:42:36;12.65;;;8.38;;
14907;SDS011;7545;52.092;7.006;2023-07-28T09:45:02;12.30;;;8.88;;
14907;SDS011;7545;52.092;7.006;2023-07-28T09:47:29;11.23;;;8.38;;
14907;SDS011;7545;52.092;7.006;2023-07-28T09:49:58;13.48;;;9.50;;
14907;SDS011;7545;52.092;7.006;2023-07-28T09:52:25;15.25;;;9.52;;
14907;SDS011;7545;52.092;7.006;2023-07-28T09:54:56;12.77;;;9.13;;
14907;SDS011;7545;52.092;7.006;2023-07-28T09:57:24;12.95;;;8.40;;
14907;SDS011;7545;52.092;7.006;2023-07-28T09:59:52;11.82;;;8.88;;
14907;SDS011;7545;52.092;7.006;2023-07-28T10:02:21;13.57;;;8.60;;
14907;SDS011;7545;52.092;7.006;2023-07-28T10:04:47;13.80;;;8.65;;
14907;SDS011;7545;52.092;7.006;2023-07-28T10:07:13;12.07;;;8.40;;
14907;SDS011;7545;52.092;7.006;2023-07-28T10:09:39;12.30;;;8.85;;
14907;SDS011;7545;52.092;7.006;2023-07-28T10:12:05;11.73;;;8.65;;
14907;SDS011;7545;52.092;7.006;2023-07-28T10:14:33;12.52;;;8.57;;
14907;SDS011;7545;52.092;7.006;2023-07-28T10:17:02;12.80;;;8.80;;
14907;SDS011;7545;52.092;7.006;2023-07-28T10:19:31;9.88;;;7.07;;
14907;SDS011;7545;52.092;7.006;2023-07-28T10:22:07;13.90;;;8.30;;
14907;SDS011;7545;52.092;7.006;2023-07-28T10:24:54;12.02;;;8.40;;
14907;SDS011;7545;52.092;7.006;2023-07-28T10:27:31;11.75;;;7.82;;
14907;SDS011;7545;52.092;7.006;2023-07-28T10:30:01;13.55;;;8.60;;
14907;SDS011;7545;52.092;7.006;2023-07-28T10:32:38;13.30;;;7.68;;
14907;SDS011;7545;52.092;7.006;2023-07-28T10:37:37;12.38;;;7.72;;
14907;SDS011;7545;52.092;7.006;2023-07-28T10:42:53;10.02;;;7.45;;
14907;SDS011;7545;52.092;7.006;2023-07-28T10:45:20;11.32;;;8.20;;
14907;SDS011;7545;52.092;7.006;2023-07-28T10:47:51;10.57;;;8.18;;
14907;SDS011;7545;52.092;7.006;2023-07-28T10:50:20;11.90;;;7.63;;
14907;SDS011;7545;52.092;7.006;2023-07-28T10:52:49;10.25;;;8.07;;
14907;SDS011;7545;52.092;7.006;2023-07-28T10:55:16;12.18;;;7.78;;
14907;SDS011;7545;52.092;7.006;2023-07-28T10:57:43;11.30;;;7.90;;
14907;SDS011;7545;52.092;7.006;2023-07-28T11:00:10;12.35;;;8.38;;
14907;SDS011;7545;52.092;7.006;2023-07-28T11:02:43;12.15;;;8.48;;
14907;SDS011;7545;52.092;7.006;2023-07-28T11:05:11;14.18;;;8.23;;
14907;SDS011;7545;52.092;7.006;2023-07-28T11:07:51;12.68;;;8.45;;
14907;SDS011;7545;52.092;7.006;2023-07-28T11:10:19;12.10;;;8.63;;
14907;SDS011;7545;52.092;7.006;2023-07-28T11:12:48;11.93;;;7.72;;
14907;SDS011;7545;52.092;7.006;2023-07-28T11:15:15;15.20;;;9.93;;
14907;SDS011;7545;52.092;7.006;2023-07-28T11:17:42;11.82;;;8.32;;
14907;SDS011;7545;52.092;7.006;2023-07-28T11:20:18;12.30;;;7.25;;
14907;SDS011;7545;52.092;7.006;2023-07-28T11:22:45;11.38;;;9.20;;
14907;SDS011;7545;52.092;7.006;2023-07-28T11:25:12;10.60;;;7.28;;
14907;SDS011;7545;52.092;7.006;2023-07-28T11:27:38;10.73;;;8.02;;
14907;SDS011;7545;52.092;7.006;2023-07-28T11:30:06;11.25;;;8.02;;
14907;SDS011;7545;52.092;7.006;2023-07-28T11:32:36;12.70;;;9.00;;
14907;SDS011;7545;52.092;7.006;2023-07-28T11:35:02;11.52;;;9.18;;
14907;SDS011;7545;52.092;7.006;2023-07-28T11:37:29;11.95;;;9.07;;
14907;SDS011;7545;52.092;7.006;2023-07-28T11:39:55;12.55;;;9.20;;
14907;SDS011;7545;52.092;7.006;2023-07-28T11:42:21;12.10;;;9.32;;
14907;SDS011;7545;52.092;7.006;2023-07-28T11:44:47;11.85;;;8.82;;
14907;SDS011;7545;52.092;7.006;2023-07-28T11:47:17;16.60;;;9.52;;
14907;SDS011;7545;52.092;7.006;2023-07-28T11:49:47;12.52;;;9.38;;
14907;SDS011;7545;52.092;7.006;2023-07-28T11:52:14;13.30;;;7.95;;
14907;SDS011;7545;52.092;7.006;2023-07-28T11:54:40;12.35;;;8.90;;
14907;SDS011;7545;52.092;7.006;2023-07-28T11:57:07;13.18;;;8.15;;
14907;SDS011;7545;52.092;7.006;2023-07-28T11:59:34;12.82;;;7.57;;
14907;SDS011;7545;52.092;7.006;2023-07-28T12:02:04;10.07;;;8.45;;
14907;SDS011;7545;52.092;7.006;2023-07-28T12:04:30;14.07;;;8.82;;
14907;SDS011;7545;52.092;7.006;2023-07-28T12:12:25;9.40;;;7.18;;
14907;SDS011;7545;52.092;7.006;2023-07-28T12:14:51;11.43;;;7.07;;
14907;SDS011;7545;52.092;7.006;2023-07-28T12:17:19;10.25;;;7.78;;
14907;SDS011;7545;52.092;7.006;2023-07-28T12:22:36;9.45;;;7.47;;
14907;SDS011;7545;52.092;7.006;2023-07-28T12:25:03;9.00;;;6.75;;
14907;SDS011;7545;52.092;7.006;2023-07-28T12:27:30;8.98;;;6.72;;
14907;SDS011;7545;52.092;7.006;2023-07-28T12:29:56;8.73;;;6.35;;
14907;SDS011;7545;52.092;7.006;2023-07-28T12:32:22;10.02;;;7.60;;
14907;SDS011;7545;52.092;7.006;2023-07-28T12:34:50;8.90;;;7.28;;
14907;SDS011;7545;52.092;7.006;2023-07-28T12:37:16;9.35;;;7.28;;
14907;SDS011;7545;52.092;7.006;2023-07-28T12:39:42;7.70;;;6.60;;
14907;SDS011;7545;52.092;7.006;2023-07-28T12:42:09;7.65;;;6.57;;
14907;SDS011;7545;52.092;7.006;2023-07-28T12:44:35;10.27;;;7.78;;
14907;SDS011;7545;52.092;7.006;2023-07-28T12:47:04;10.38;;;6.82;;
14907;SDS011;7545;52.092;7.006;2023-07-28T12:49:30;8.45;;;6.93;;
14907;SDS011;7545;52.092;7.006;2023-07-28T12:51:57;11.32;;;7.72;;
14907;SDS011;7545;52.092;7.006;2023-07-28T12:54:23;9.85;;;6.93;;
14907;SDS011;7545;52.092;7.006;2023-07-28T12:56:49;8.80;;;7.15;;
14907;SDS011;7545;52.092;7.006;2023-07-28T12:59:16;8.80;;;7.30;;
14907;SDS011;7545;52.092;7.006;2023-07-28T13:01:41;10.02;;;7.00;;
14907;SDS011;7545;52.092;7.006;2023-07-28T13:04:07;8.70;;;6.93;;
14907;SDS011;7545;52.092;7.006;2023-07-28T13:06:33;6.55;;;5.85;;
14907;SDS011;7545;52.092;7.006;2023-07-28T13:08:58;6.93;;;5.78;;
14907;SDS011;7545;52.092;7.006;2023-07-28T13:11:24;6.75;;;4.72;;
14907;SDS011;7545;52.092;7.006;2023-07-28T13:13:50;5.82;;;4.90;;
14907;SDS011;7545;52.092;7.006;2023-07-28T13:16:16;5.43;;;4.57;;
14907;SDS011;7545;52.092;7.006;2023-07-28T13:18:44;6.53;;;4.90;;
14907;SDS011;7545;52.092;7.006;2023-07-28T13:21:10;5.68;;;4.50;;
14907;SDS011;7545;52.092;7.006;2023-07-28T13:23:36;5.82;;;4.97;;
14907;SDS011;7545;52.092;7.006;2023-07-28T13:26:02;5.72;;;4.50;;
14907;SDS011;7545;52.092;7.006;2023-07-28T13:28:29;5.10;;;4.60;;
14907;SDS011;7545;52.092;7.006;2023-07-28T13:30:55;8.48;;;5.05;;
14907;SDS011;7545;52.092;7.006;2023-07-28T13:33:20;7.10;;;4.47;;
14907;SDS011;7545;52.092;7.006;2023-07-28T13:35:46;7.78;;;5.18;;
14907;SDS011;7545;52.092;7.006;2023-07-28T13:38:12;5.63;;;4.65;;
14907;SDS011;7545;52.092;7.006;2023-07-28T13:40:38;5.75;;;5.15;;
14907;SDS011;7545;52.092;7.006;2023-07-28T13:43:03;5.63;;;4.60;;
14907;SDS011;7545;52.092;7.006;2023-07-28T13:45:29;6.15;;;5.18;;
14907;SDS011;7545;52.092;7.006;2023-07-28T13:47:55;4.25;;;3.78;;
14907;SDS011;7545;52.092;7.006;2023-07-28T13:50:21;5.55;;;4.82;;
14907;SDS011;7545;52.092;7.006;2023-07-28T13:52:46;6.22;;;4.88;;
14907;SDS011;7545;52.092;7.006;2023-07-28T13:55:12;6.53;;;5.20;;
14907;SDS011;7545;52.092;7.006;2023-07-28T13:57:38;7.60;;;4.65;;
14907;SDS011;7545;52.092;7.006;2023-07-28T14:00:04;5.45;;;4.82;;
14907;SDS011;7545;52.092;7.006;2023-07-28T14:02:37;4.45;;;4.00;;
14907;SDS011;7545;52.092;7.006;2023-07-28T14:05:04;4.80;;;3.45;;
14907;SDS011;7545;52.092;7.006;2023-07-28T14:07:30;3.67;;;3.15;;
14907;SDS011;7545;52.092;7.006;2023-07-28T14:09:56;3.38;;;3.08;;
14907;SDS011;7545;52.092;7.006;2023-07-28T14:12:22;3.30;;;2.95;;
14907;SDS011;7545;52.092;7.006;2023-07-28T14:14:48;3.50;;;3.15;;
14907;SDS011;7545;52.092;7.006;2023-07-28T14:17:14;4.15;;;3.53;;
14907;SDS011;7545;52.092;7.006;2023-07-28T14:19:41;4.78;;;3.17;;
14907;SDS011;7545;52.092;7.006;2023-07-28T14:22:07;4.45;;;3.72;;
14907;SDS011;7545;52.092;7.006;2023-07-28T14:24:33;4.15;;;3.22;;
14907;SDS011;7545;52.092;7.006;2023-07-28T14:26:59;3.70;;;3.40;;
14907;SDS011;7545;52.092;7.006;2023-07-28T14:29:24;3.60;;;3.28;;
14907;SDS011;7545;52.092;7.006;2023-07-28T14:31:50;4.30;;;3.90;;
14907;SDS011;7545;52.092;7.006;2023-07-28T14:34:15;4.35;;;2.90;;
14907;SDS011;7545;52.092;7.006;2023-07-28T14:36:41;4.38;;;3.70;;
14907;SDS011;7545;52.092;7.006;2023-07-28T14:39:06;4.13;;;3.70;;
14907;SDS011;7545;52.092;7.006;2023-07-28T14:41:33;4.10;;;3.78;;
14907;SDS011;7545;52.092;7.006;2023-07-28T14:43:59;8.43;;;3.40;;
14907;SDS011;7545;52.092;7.006;2023-07-28T14:46:25;3.45;;;3.15;;
14907;SDS011;7545;52.092;7.006;2023-07-28T14:48:51;3.97;;;3.58;;
14907;SDS011;7545;52.092;7.006;2023-07-28T14:51:17;4.18;;;3.78;;
14907;SDS011;7545;52.092;7.006;2023-07-28T14:53:42;5.43;;;3.65;;
14907;SDS011;7545;52.092;7.006;2023-07-28T14:56:10;4.30;;;3.20;;
14907;SDS011;7545;52.092;7.006;2023-07-28T14:58:36;3.75;;;3.33;;
14907;SDS011;7545;52.092;7.006;2023-07-28T15:01:01;4.05;;;3.33;;
14907;SDS011;7545;52.092;7.006;2023-07-28T15:03:29;3.55;;;3.25;;
14907;SDS011;7545;52.092;7.006;2023-07-28T15:05:58;3.70;;;3.40;;
14907;SDS011;7545;52.092;7.006;2023-07-28T15:08:24;4.07;;;3.67;;
14907;SDS011;7545;52.092;7.006;2023-07-28T15:10:49;4.63;;;3.53;;